Time;durP1;ratioP1;P1;durP2;ratioP2;P2;SDS_P1;SDS_P2;PMS_P1;PMS_P2;Temp;Humidity;BMP_temperature;BMP_pressure;BME280_temperature;BME280_humidity;BME280_pressure;Samples;Min_cycle;Max_cycle;Signal;HPM_P1;HPM_P2
2022/06/11 00:01:28;;;;;;;48.92;26.05;;;;;;;;;;5026422;28;20413;-69
2022/06/11 00:03:55;;;;;;;44.45;24.50;;;;;;;;;;5039239;28;20479;-67
2022/06/11 00:06:22;;;;;;;41.00;21.08;;;;;;;;;;5037023;28;20021;-68
2022/06/11 00:08:48;;;;;;;42.00;20.52;;;;;;;;;;5035204;28;20029;-68
2022/06/11 00:11:15;;;;;;;32.42;18.38;;;;;;;;;;5033057;28;20132;-68
2022/06/11 00:13:42;;;;;;;36.75;19.20;;;;;;;;;;5045943;28;20043;-69
2022/06/11 00:16:09;;;;;;;45.45;19.50;;;;;;;;;;5027779;28;20037;-69
2022/06/11 00:18:35;;;;;;;33.50;18.17;;;;;;;;;;5022788;28;20053;-69
2022/06/11 00:21:01;;;;;;;35.70;19.15;;;;;;;;;;5030451;28;20148;-68
2022/06/11 00:23:27;;;;;;;35.28;18.95;;;;;;;;;;5037417;28;20125;-68
2022/06/11 00:25:54;;;;;;;35.92;16.95;;;;;;;;;;5034098;28;20051;-67
2022/06/11 00:28:20;;;;;;;31.15;16.17;;;;;;;;;;5028054;28;20029;-68
2022/06/11 00:30:47;;;;;;;29.52;14.93;;;;;;;;;;5031768;28;20030;-68
2022/06/11 00:33:14;;;;;;;27.83;13.57;;;;;;;;;;5037397;28;20023;-67
2022/06/11 00:35:40;;;;;;;21.08;11.32;;;;;;;;;;5029339;28;20041;-68
2022/06/11 00:38:07;;;;;;;21.13;10.77;;;;;;;;;;5038184;28;20028;-68
2022/06/11 00:40:34;;;;;;;21.73;9.75;;;;;;;;;;5034516;28;20506;-68
2022/06/11 00:43:00;;;;;;;18.55;9.95;;;;;;;;;;5030491;28;20079;-68
2022/06/11 00:45:31;;;;;;;16.35;8.50;;;;;;;;;;5027511;28;20029;-69
2022/06/11 00:48:06;;;;;;;14.95;7.88;;;;;;;;;;4989477;28;1090472;-68
2022/06/11 00:50:41;;;;;;;17.98;7.30;;;;;;;;;;5036111;28;20122;-68
2022/06/11 00:53:12;;;;;;;17.45;7.40;;;;;;;;;;5031450;28;20461;-69
2022/06/11 00:55:39;;;;;;;13.63;8.25;;;;;;;;;;5040517;28;20056;-68
2022/06/11 00:58:10;;;;;;;13.40;6.72;;;;;;;;;;5030340;28;20040;-68
2022/06/11 01:00:40;;;;;;;11.02;6.60;;;;;;;;;;5031982;28;20061;-68
2022/06/11 01:03:06;;;;;;;17.20;6.55;;;;;;;;;;5032098;28;20033;-69
2022/06/11 01:05:36;;;;;;;14.32;6.20;;;;;;;;;;5027610;28;20036;-68
2022/06/11 01:08:11;;;;;;;15.85;6.38;;;;;;;;;;5030198;28;20608;-69
2022/06/11 01:10:37;;;;;;;12.88;6.43;;;;;;;;;;5028466;28;20082;-68
2022/06/11 01:13:03;;;;;;;12.20;6.13;;;;;;;;;;5035537;28;20042;-68
2022/06/11 01:15:47;;;;;;;15.15;6.32;;;;;;;;;;5034878;28;20037;-68
2022/06/11 01:18:16;;;;;;;16.00;6.13;;;;;;;;;;5028683;28;20034;-69
2022/06/11 01:20:52;;;;;;;13.88;5.80;;;;;;;;;;5037466;28;20029;-69
2022/06/11 01:23:28;;;;;;;12.68;6.50;;;;;;;;;;5023722;28;20025;-68
2022/06/11 01:26:20;;;;;;;10.57;5.65;;;;;;;;;;5026903;28;20083;-68
2022/06/11 01:28:55;;;;;;;11.90;6.03;;;;;;;;;;5024599;28;20098;-69
2022/06/11 01:31:35;;;;;;;13.95;5.72;;;;;;;;;;5033443;28;20033;-69
2022/06/11 01:34:08;;;;;;;15.52;6.20;;;;;;;;;;5040364;28;20025;-68
2022/06/11 01:36:39;;;;;;;15.35;5.97;;;;;;;;;;5035150;28;20472;-69
2022/06/11 01:39:15;;;;;;;14.50;6.00;;;;;;;;;;5037721;28;20036;-68
2022/06/11 01:41:51;;;;;;;12.02;5.20;;;;;;;;;;5030582;28;20078;-68
2022/06/11 01:44:25;;;;;;;11.63;6.00;;;;;;;;;;5025452;28;20037;-70
2022/06/11 01:46:53;;;;;;;10.80;5.45;;;;;;;;;;5031489;28;20028;-69
2022/06/11 01:49:22;;;;;;;12.35;5.60;;;;;;;;;;5029811;28;20504;-69
2022/06/11 01:51:56;;;;;;;15.35;5.30;;;;;;;;;;5032274;28;20029;-69
2022/06/11 01:54:37;;;;;;;14.07;5.82;;;;;;;;;;5028127;28;20030;-69
2022/06/11 01:57:15;;;;;;;15.80;6.43;;;;;;;;;;5025366;28;20457;-69
2022/06/11 01:59:51;;;;;;;15.38;6.90;;;;;;;;;;5027820;28;20116;-68
2022/06/11 02:02:17;;;;;;;14.80;5.40;;;;;;;;;;5031405;28;20053;-69
2022/06/11 02:04:52;;;;;;;15.55;5.75;;;;;;;;;;5028384;28;20068;-68
2022/06/11 02:07:18;;;;;;;16.73;5.20;;;;;;;;;;5031816;28;20136;-66
2022/06/11 02:09:51;;;;;;;16.35;5.50;;;;;;;;;;5032271;28;20040;-68
2022/06/11 02:12:32;;;;;;;11.20;4.78;;;;;;;;;;5028102;28;20150;-68
2022/06/11 02:15:04;;;;;;;16.88;5.05;;;;;;;;;;5042442;28;20029;-68
2022/06/11 02:17:33;;;;;;;14.02;5.28;;;;;;;;;;5028207;28;20827;-69
2022/06/11 02:20:06;;;;;;;12.90;5.70;;;;;;;;;;5030810;28;20545;-68
2022/06/11 02:22:50;;;;;;;19.73;5.35;;;;;;;;;;5037568;28;20029;-69
2022/06/11 02:25:31;;;;;;;19.23;5.35;;;;;;;;;;5028510;28;20116;-68
2022/06/11 02:27:58;;;;;;;11.68;4.80;;;;;;;;;;5042712;28;20311;-68
2022/06/11 02:30:27;;;;;;;18.35;4.95;;;;;;;;;;5029518;28;20052;-68
2022/06/11 02:32:54;;;;;;;16.35;4.57;;;;;;;;;;5037702;28;20018;-68
2022/06/11 02:35:26;;;;;;;18.42;5.95;;;;;;;;;;5031961;28;20059;-67
2022/06/11 02:37:52;;;;;;;12.27;4.47;;;;;;;;;;5029312;28;20124;-68
2022/06/11 02:40:22;;;;;;;15.13;4.57;;;;;;;;;;5027277;28;20080;-66
2022/06/11 02:42:48;;;;;;;11.77;4.10;;;;;;;;;;5028605;28;20248;-67
2022/06/11 02:45:15;;;;;;;13.02;3.88;;;;;;;;;;5040111;28;20051;-69
2022/06/11 02:47:42;;;;;;;14.13;4.40;;;;;;;;;;5023645;28;20068;-69
2022/06/11 02:50:09;;;;;;;16.40;4.78;;;;;;;;;;5027618;28;20063;-69
2022/06/11 02:52:38;;;;;;;16.83;4.85;;;;;;;;;;5025676;28;20052;-69
2022/06/11 02:55:04;;;;;;;15.40;4.00;;;;;;;;;;5033425;28;20107;-68
2022/06/11 02:57:31;;;;;;;16.02;5.00;;;;;;;;;;5027512;28;20040;-68
2022/06/11 02:59:58;;;;;;;15.90;3.90;;;;;;;;;;5034328;28;20025;-70
2022/06/11 03:02:24;;;;;;;12.02;4.10;;;;;;;;;;5032875;28;20079;-70
2022/06/11 03:04:51;;;;;;;15.27;5.35;;;;;;;;;;5026373;28;20057;-71
2022/06/11 03:07:17;;;;;;;13.68;4.50;;;;;;;;;;5027245;28;20120;-70
2022/06/11 03:09:44;;;;;;;13.85;4.65;;;;;;;;;;5033496;28;20025;-71
2022/06/11 03:12:12;;;;;;;15.02;5.25;;;;;;;;;;5030802;28;20024;-71
2022/06/11 03:14:38;;;;;;;16.40;5.45;;;;;;;;;;5024669;28;20474;-72
2022/06/11 03:17:04;;;;;;;21.85;5.88;;;;;;;;;;5025083;28;20043;-72
2022/06/11 03:19:31;;;;;;;21.00;4.88;;;;;;;;;;5021320;28;20082;-70
2022/06/11 03:21:57;;;;;;;20.80;4.80;;;;;;;;;;5050323;28;20039;-70
2022/06/11 03:24:24;;;;;;;18.90;5.80;;;;;;;;;;5037600;28;20017;-70
2022/06/11 03:26:50;;;;;;;20.52;5.22;;;;;;;;;;5031616;28;20120;-71
2022/06/11 03:29:16;;;;;;;22.08;5.05;;;;;;;;;;5034479;28;20024;-71
2022/06/11 03:31:43;;;;;;;20.58;4.55;;;;;;;;;;5032698;28;20121;-70
2022/06/11 03:34:09;;;;;;;25.73;5.53;;;;;;;;;;5030011;28;20032;-71
2022/06/11 03:36:36;;;;;;;25.48;5.38;;;;;;;;;;5035940;28;20030;-70
2022/06/11 03:39:02;;;;;;;17.83;4.70;;;;;;;;;;5036505;28;20067;-71
2022/06/11 03:41:28;;;;;;;17.80;4.53;;;;;;;;;;5032546;28;21363;-70
2022/06/11 03:43:54;;;;;;;18.63;4.28;;;;;;;;;;5038049;28;20024;-71
2022/06/11 03:46:21;;;;;;;17.88;4.72;;;;;;;;;;5025139;28;20368;-70
2022/06/11 03:48:47;;;;;;;24.55;5.05;;;;;;;;;;5029328;28;20084;-70
2022/06/11 03:51:13;;;;;;;29.65;6.85;;;;;;;;;;5031361;28;20562;-71
2022/06/11 03:53:40;;;;;;;15.18;4.90;;;;;;;;;;5032384;28;20047;-71
2022/06/11 03:56:07;;;;;;;18.40;4.75;;;;;;;;;;5033503;28;20112;-72
2022/06/11 03:58:33;;;;;;;20.67;6.57;;;;;;;;;;5030223;28;20273;-72
2022/06/11 04:01:14;;;;;;;19.80;4.72;;;;;;;;;;5031179;28;20542;-71
2022/06/11 04:03:40;;;;;;;25.13;5.10;;;;;;;;;;5033562;28;20043;-69
2022/06/11 04:06:07;;;;;;;21.80;5.80;;;;;;;;;;5029694;28;20013;-72
2022/06/11 04:08:34;;;;;;;20.67;4.85;;;;;;;;;;5025346;28;20039;-70
2022/06/11 04:11:01;;;;;;;14.15;5.63;;;;;;;;;;5034228;28;20025;-70
2022/06/11 04:13:27;;;;;;;25.85;4.80;;;;;;;;;;5039724;28;20112;-70
2022/06/11 04:15:54;;;;;;;20.90;5.45;;;;;;;;;;5035568;28;20033;-71
2022/06/11 04:18:40;;;;;;;19.20;5.05;;;;;;;;;;5038546;28;20084;-70
2022/06/11 04:21:08;;;;;;;23.73;4.50;;;;;;;;;;5028809;28;20022;-71
2022/06/11 04:23:35;;;;;;;19.02;4.43;;;;;;;;;;5029658;28;20026;-71
2022/06/11 04:26:02;;;;;;;16.45;4.22;;;;;;;;;;5033510;28;20033;-71
2022/06/11 04:28:29;;;;;;;20.90;3.88;;;;;;;;;;5030034;28;20063;-71
2022/06/11 04:30:56;;;;;;;14.50;4.75;;;;;;;;;;5039170;28;20387;-69
2022/06/11 04:33:22;;;;;;;17.77;4.20;;;;;;;;;;5035853;28;20025;-70
2022/06/11 04:35:48;;;;;;;17.38;3.85;;;;;;;;;;5030983;28;20021;-69
2022/06/11 04:38:16;;;;;;;20.38;4.07;;;;;;;;;;5032150;28;20025;-70
2022/06/11 04:40:43;;;;;;;17.70;4.47;;;;;;;;;;5025236;28;20028;-70
2022/06/11 04:43:11;;;;;;;15.70;4.00;;;;;;;;;;5037884;28;20146;-71
2022/06/11 04:45:37;;;;;;;19.45;3.85;;;;;;;;;;5032513;28;20025;-70
2022/06/11 04:48:03;;;;;;;16.55;3.92;;;;;;;;;;5035565;28;20083;-71
2022/06/11 04:50:29;;;;;;;21.80;5.20;;;;;;;;;;5047019;28;20021;-70
2022/06/11 04:52:55;;;;;;;15.52;3.83;;;;;;;;;;5033597;28;20036;-69
2022/06/11 04:55:21;;;;;;;24.25;5.00;;;;;;;;;;5030731;28;20056;-70
2022/06/11 04:57:48;;;;;;;24.85;3.85;;;;;;;;;;5039012;28;20032;-71
2022/06/11 05:00:18;;;;;;;17.50;3.22;;;;;;;;;;5035911;28;20021;-70
2022/06/11 05:02:44;;;;;;;20.00;3.88;;;;;;;;;;5029888;28;20072;-71
2022/06/11 05:05:10;;;;;;;21.48;4.38;;;;;;;;;;5035930;28;20087;-70
2022/06/11 05:07:36;;;;;;;20.90;4.43;;;;;;;;;;5031877;28;20026;-70
2022/06/11 05:10:03;;;;;;;21.52;5.35;;;;;;;;;;5037930;28;20487;-71
2022/06/11 05:12:29;;;;;;;22.63;4.38;;;;;;;;;;5031084;28;20136;-71
2022/06/11 05:14:55;;;;;;;21.20;3.90;;;;;;;;;;5034889;28;20968;-71
2022/06/11 05:17:21;;;;;;;18.05;4.10;;;;;;;;;;5021886;28;20126;-69
2022/06/11 05:19:47;;;;;;;24.30;4.40;;;;;;;;;;5023436;28;20049;-69
2022/06/11 05:22:13;;;;;;;26.38;4.55;;;;;;;;;;5029215;28;20025;-71
2022/06/11 05:24:39;;;;;;;18.20;4.05;;;;;;;;;;5029093;28;20033;-70
2022/06/11 05:27:09;;;;;;;27.92;4.65;;;;;;;;;;5028142;28;20090;-70
2022/06/11 05:29:44;;;;;;;30.63;6.60;;;;;;;;;;5030464;28;20041;-70
2022/06/11 05:32:10;;;;;;;25.98;4.65;;;;;;;;;;5033896;28;20025;-70
2022/06/11 05:34:37;;;;;;;22.92;4.45;;;;;;;;;;5026762;28;20087;-73
2022/06/11 05:37:03;;;;;;;22.85;4.65;;;;;;;;;;5035142;28;20048;-70
2022/06/11 05:39:29;;;;;;;25.58;4.53;;;;;;;;;;5035674;28;20033;-70
2022/06/11 05:41:56;;;;;;;21.20;4.63;;;;;;;;;;5030221;28;20060;-69
2022/06/11 05:44:22;;;;;;;23.65;5.03;;;;;;;;;;5036237;28;20071;-69
2022/06/11 05:46:48;;;;;;;21.90;4.43;;;;;;;;;;5038486;28;20033;-70
2022/06/11 05:49:16;;;;;;;34.65;5.47;;;;;;;;;;5029882;28;20671;-70
2022/06/11 05:51:44;;;;;;;27.15;5.93;;;;;;;;;;5041334;28;20124;-71
2022/06/11 05:54:14;;;;;;;29.63;4.68;;;;;;;;;;5032002;28;20029;-71
2022/06/11 05:56:40;;;;;;;26.17;4.40;;;;;;;;;;5042861;28;20494;-70
2022/06/11 05:59:09;;;;;;;25.58;4.85;;;;;;;;;;5024190;28;20029;-72
2022/06/11 06:01:39;;;;;;;24.88;5.32;;;;;;;;;;5025871;28;20033;-70
2022/06/11 06:04:06;;;;;;;23.02;4.88;;;;;;;;;;5027338;28;20022;-70
2022/06/11 06:06:32;;;;;;;28.40;5.30;;;;;;;;;;5030794;28;20140;-70
2022/06/11 06:08:58;;;;;;;27.77;5.75;;;;;;;;;;5029817;28;20029;-70
2022/06/11 06:11:26;;;;;;;29.60;5.38;;;;;;;;;;5028095;28;20030;-70
2022/06/11 06:13:52;;;;;;;29.40;5.00;;;;;;;;;;5027862;28;20029;-70
2022/06/11 06:16:19;;;;;;;29.17;5.85;;;;;;;;;;5034432;28;20035;-67
2022/06/11 06:18:46;;;;;;;27.25;5.50;;;;;;;;;;5031469;28;20053;-70
2022/06/11 06:21:13;;;;;;;22.98;4.60;;;;;;;;;;5030327;28;20021;-69
2022/06/11 06:23:39;;;;;;;28.00;4.95;;;;;;;;;;5030367;28;20040;-71
2022/06/11 06:26:05;;;;;;;31.08;5.25;;;;;;;;;;5026517;28;20116;-69
2022/06/11 06:28:32;;;;;;;27.25;5.90;;;;;;;;;;5031008;28;20199;-70
2022/06/11 06:30:59;;;;;;;27.48;5.50;;;;;;;;;;5044472;28;20057;-70
2022/06/11 06:33:30;;;;;;;31.42;5.57;;;;;;;;;;5030255;28;20057;-70
2022/06/11 06:35:56;;;;;;;29.85;5.15;;;;;;;;;;5025151;28;20030;-69
2022/06/11 06:38:22;;;;;;;27.63;4.97;;;;;;;;;;5022264;28;20221;-69
2022/06/11 06:40:49;;;;;;;24.48;5.28;;;;;;;;;;5025441;28;20025;-71
2022/06/11 06:43:15;;;;;;;28.42;6.38;;;;;;;;;;5040478;28;20037;-70
2022/06/11 06:45:41;;;;;;;26.48;5.15;;;;;;;;;;5024652;28;20045;-70
2022/06/11 06:48:07;;;;;;;22.63;5.10;;;;;;;;;;5016565;28;20472;-70
2022/06/11 06:50:33;;;;;;;27.45;5.07;;;;;;;;;;5010193;28;20052;-71
2022/06/11 06:53:00;;;;;;;25.50;5.10;;;;;;;;;;5028442;28;20044;-73
2022/06/11 06:55:26;;;;;;;29.00;5.13;;;;;;;;;;5024194;28;20044;-73
2022/06/11 06:57:52;;;;;;;26.52;5.30;;;;;;;;;;5025343;28;20049;-74
2022/06/11 07:00:18;;;;;;;25.80;5.50;;;;;;;;;;5027039;28;20183;-73
2022/06/11 07:02:45;;;;;;;29.13;5.85;;;;;;;;;;5021376;28;20042;-73
2022/06/11 07:05:12;;;;;;;25.60;4.90;;;;;;;;;;5009593;28;20022;-73
2022/06/11 07:07:38;;;;;;;20.60;4.47;;;;;;;;;;5009356;28;20119;-75
2022/06/11 07:10:06;;;;;;;27.60;5.35;;;;;;;;;;5030657;28;20030;-73
2022/06/11 07:12:32;;;;;;;19.55;4.28;;;;;;;;;;5047379;28;20033;-73
2022/06/11 07:14:59;;;;;;;26.38;4.72;;;;;;;;;;5033575;28;20030;-74
2022/06/11 07:17:26;;;;;;;20.30;4.97;;;;;;;;;;5032550;28;20037;-74
2022/06/11 07:19:54;;;;;;;20.63;4.03;;;;;;;;;;5033074;28;20037;-73
2022/06/11 07:22:23;;;;;;;22.17;5.55;;;;;;;;;;5029283;28;20036;-74
2022/06/11 07:24:49;;;;;;;19.58;4.88;;;;;;;;;;5033396;28;20029;-75
2022/06/11 07:27:18;;;;;;;22.20;4.55;;;;;;;;;;5031998;28;20084;-73
2022/06/11 07:29:53;;;;;;;20.10;4.38;;;;;;;;;;5032863;28;20033;-73
2022/06/11 07:32:20;;;;;;;22.58;4.53;;;;;;;;;;5032066;28;20034;-73
2022/06/11 07:34:46;;;;;;;20.98;4.15;;;;;;;;;;5031515;28;20021;-73
2022/06/11 07:37:12;;;;;;;20.05;4.05;;;;;;;;;;5032220;28;20037;-73
2022/06/11 07:39:38;;;;;;;18.33;4.78;;;;;;;;;;5032529;28;20060;-74
2022/06/11 07:42:05;;;;;;;21.02;4.88;;;;;;;;;;5030491;28;20108;-74
2022/06/11 07:44:31;;;;;;;18.70;5.13;;;;;;;;;;5032727;28;20021;-73
2022/06/11 07:46:57;;;;;;;22.27;4.90;;;;;;;;;;5032533;28;20029;-74
2022/06/11 07:49:24;;;;;;;19.02;4.32;;;;;;;;;;5032500;28;20104;-74
2022/06/11 07:51:51;;;;;;;21.40;4.05;;;;;;;;;;5031119;28;20113;-73
2022/06/11 07:54:17;;;;;;;22.20;4.75;;;;;;;;;;5032552;28;20060;-75
2022/06/11 07:56:43;;;;;;;17.48;4.22;;;;;;;;;;5032397;28;20155;-75
2022/06/11 07:59:09;;;;;;;19.30;4.57;;;;;;;;;;5031700;28;20399;-75
2022/06/11 08:01:35;;;;;;;15.52;4.03;;;;;;;;;;5032182;28;20041;-74
2022/06/11 08:04:01;;;;;;;21.90;4.65;;;;;;;;;;5032011;28;20163;-72
2022/06/11 08:06:27;;;;;;;18.45;3.92;;;;;;;;;;5031763;28;20108;-74
2022/06/11 08:08:54;;;;;;;21.20;3.88;;;;;;;;;;5032555;28;20044;-74
2022/06/11 08:11:20;;;;;;;18.90;3.70;;;;;;;;;;5031835;28;20033;-73
2022/06/11 08:13:47;;;;;;;20.80;3.90;;;;;;;;;;5026247;28;20038;-74
2022/06/11 08:16:13;;;;;;;22.67;4.43;;;;;;;;;;5012667;28;20036;-73
2022/06/11 08:18:39;;;;;;;19.10;3.72;;;;;;;;;;5025994;28;20047;-74
2022/06/11 08:21:06;;;;;;;15.90;3.65;;;;;;;;;;5031096;28;20120;-74
2022/06/11 08:23:32;;;;;;;16.73;3.42;;;;;;;;;;5031349;28;20045;-74
2022/06/11 08:25:58;;;;;;;19.27;4.97;;;;;;;;;;5030417;28;20029;-73
2022/06/11 08:28:24;;;;;;;22.65;4.30;;;;;;;;;;5031792;28;20025;-73
2022/06/11 08:30:51;;;;;;;22.75;4.15;;;;;;;;;;5032484;28;20048;-75
2022/06/11 08:33:17;;;;;;;16.95;3.38;;;;;;;;;;5047732;28;20084;-74
2022/06/11 08:35:43;;;;;;;16.48;3.92;;;;;;;;;;5031113;28;20132;-74
2022/06/11 08:38:10;;;;;;;20.75;4.40;;;;;;;;;;5011072;28;20040;-74
2022/06/11 08:40:42;;;;;;;15.48;3.80;;;;;;;;;;5022765;28;20025;-75
2022/06/11 08:43:14;;;;;;;26.50;4.80;;;;;;;;;;5024997;28;20029;-74
2022/06/11 08:45:55;;;;;;;16.25;3.47;;;;;;;;;;5029666;28;20113;-73
2022/06/11 08:48:51;;;;;;;18.23;3.78;;;;;;;;;;5026892;28;20029;-76
2022/06/11 08:51:36;;;;;;;18.77;4.10;;;;;;;;;;5021386;28;20042;-73
2022/06/11 08:54:03;;;;;;;19.80;3.17;;;;;;;;;;5029630;28;20029;-75
2022/06/11 08:56:41;;;;;;;15.23;3.25;;;;;;;;;;5028265;28;20133;-73
2022/06/11 08:59:26;;;;;;;18.48;3.33;;;;;;;;;;5030323;28;20480;-75
2022/06/11 09:02:07;;;;;;;15.63;3.80;;;;;;;;;;5031349;28;20038;-75
2022/06/11 09:04:33;;;;;;;15.50;3.47;;;;;;;;;;5028868;28;20033;-74
2022/06/11 09:07:11;;;;;;;19.42;3.30;;;;;;;;;;5031391;28;20018;-74
2022/06/11 09:09:44;;;;;;;12.20;3.47;;;;;;;;;;5030827;28;20323;-74
2022/06/11 09:12:10;;;;;;;17.30;3.25;;;;;;;;;;5030652;28;20117;-74
2022/06/11 09:15:01;;;;;;;13.27;3.47;;;;;;;;;;5028820;28;20076;-74
2022/06/11 09:17:53;;;;;;;16.65;3.80;;;;;;;;;;5030909;28;20584;-74
2022/06/11 09:20:22;;;;;;;16.40;3.50;;;;;;;;;;5021444;28;20068;-74
2022/06/11 09:22:51;;;;;;;18.63;3.38;;;;;;;;;;5019498;28;20033;-75
2022/06/11 09:25:32;;;;;;;18.00;4.13;;;;;;;;;;5043630;28;20164;-75
2022/06/11 09:28:00;;;;;;;18.08;3.25;;;;;;;;;;5024822;28;20449;-74
2022/06/11 09:30:43;;;;;;;11.75;3.25;;;;;;;;;;5026825;28;20479;-74
2022/06/11 09:33:19;;;;;;;14.77;3.60;;;;;;;;;;5029939;28;20306;-75
2022/06/11 09:35:58;;;;;;;16.65;3.35;;;;;;;;;;5025900;28;20025;-74
2022/06/11 09:38:34;;;;;;;17.05;3.78;;;;;;;;;;5029211;28;20449;-74
2022/06/11 09:41:11;;;;;;;21.98;3.22;;;;;;;;;;5031105;28;20543;-75
2022/06/11 09:43:40;;;;;;;23.55;5.60;;;;;;;;;;5030213;28;20556;-73
2022/06/11 09:46:26;;;;;;;18.70;4.30;;;;;;;;;;5029902;28;20132;-74
2022/06/11 09:49:12;;;;;;;22.38;4.70;;;;;;;;;;5027501;28;20048;-74
2022/06/11 09:51:57;;;;;;;20.33;4.55;;;;;;;;;;5028602;28;20059;-73
2022/06/11 09:54:23;;;;;;;13.75;3.85;;;;;;;;;;5029627;28;20554;-74
2022/06/11 09:56:52;;;;;;;16.05;4.18;;;;;;;;;;5028185;28;20132;-73
2022/06/11 09:59:21;;;;;;;30.40;5.88;;;;;;;;;;5029339;28;20107;-74
2022/06/11 10:02:01;;;;;;;18.15;4.63;;;;;;;;;;5028135;28;20508;-73
2022/06/11 10:04:34;;;;;;;19.77;3.72;;;;;;;;;;5024902;28;20040;-73
2022/06/11 10:07:10;;;;;;;17.08;3.63;;;;;;;;;;5024223;28;20061;-74
2022/06/11 10:09:38;;;;;;;16.27;3.95;;;;;;;;;;5027239;28;20092;-76
2022/06/11 10:12:15;;;;;;;20.35;4.18;;;;;;;;;;5027091;28;20029;-73
2022/06/11 10:14:45;;;;;;;19.45;3.55;;;;;;;;;;5028264;28;20033;-74
2022/06/11 10:17:14;;;;;;;18.02;4.18;;;;;;;;;;5026974;28;20539;-74
2022/06/11 10:19:46;;;;;;;18.73;4.20;;;;;;;;;;5023480;28;20029;-73
2022/06/11 10:22:18;;;;;;;18.92;3.80;;;;;;;;;;5027705;28;20501;-72
2022/06/11 10:24:52;;;;;;;18.27;3.50;;;;;;;;;;5028974;28;20168;-73
2022/06/11 10:27:20;;;;;;;17.63;3.88;;;;;;;;;;5026481;28;20029;-73
2022/06/11 10:29:49;;;;;;;19.90;3.65;;;;;;;;;;5026424;28;20030;-73
2022/06/11 10:32:25;;;;;;;16.52;4.90;;;;;;;;;;5017493;28;20025;-73
2022/06/11 10:35:04;;;;;;;24.38;4.32;;;;;;;;;;5028881;28;20514;-75
2022/06/11 10:37:33;;;;;;;13.40;3.70;;;;;;;;;;5029733;28;20084;-74
2022/06/11 10:40:16;;;;;;;18.65;3.85;;;;;;;;;;5028394;28;20037;-73
2022/06/11 10:43:04;;;;;;;19.23;4.15;;;;;;;;;;5027139;28;20025;-74
2022/06/11 10:45:31;;;;;;;22.00;3.97;;;;;;;;;;5029299;28;20112;-77
2022/06/11 10:47:58;;;;;;;19.42;3.58;;;;;;;;;;5028609;28;20034;-75
2022/06/11 10:50:24;;;;;;;14.10;3.55;;;;;;;;;;5031025;28;20029;-74
2022/06/11 10:52:56;;;;;;;15.95;3.63;;;;;;;;;;5025411;28;20053;-73
2022/06/11 10:55:39;;;;;;;18.83;3.83;;;;;;;;;;5027452;28;20152;-74
2022/06/11 10:58:19;;;;;;;18.90;4.47;;;;;;;;;;5027908;28;20030;-73
2022/06/11 11:00:50;;;;;;;18.25;3.97;;;;;;;;;;5030417;28;20033;-74
2022/06/11 11:03:29;;;;;;;21.23;4.30;;;;;;;;;;5022263;28;20037;-74
2022/06/11 11:06:07;;;;;;;18.48;3.78;;;;;;;;;;5024851;28;20056;-75
2022/06/11 11:08:34;;;;;;;22.20;4.35;;;;;;;;;;5033914;28;20037;-74
2022/06/11 11:11:00;;;;;;;20.65;4.22;;;;;;;;;;5033789;28;20032;-74
2022/06/11 11:13:39;;;;;;;19.15;3.90;;;;;;;;;;5033362;28;20561;-74
2022/06/11 11:16:08;;;;;;;21.73;4.15;;;;;;;;;;5033864;28;20212;-74
2022/06/11 11:18:39;;;;;;;25.00;4.78;;;;;;;;;;5032491;28;20037;-74
2022/06/11 11:21:05;;;;;;;22.33;4.22;;;;;;;;;;5032114;28;20500;-74
2022/06/11 11:23:39;;;;;;;20.63;5.03;;;;;;;;;;5031947;28;20037;-74
2022/06/11 11:26:23;;;;;;;15.15;3.42;;;;;;;;;;5032011;28;20033;-76
2022/06/11 11:29:16;;;;;;;16.55;4.22;;;;;;;;;;5032098;28;20029;-75
2022/06/11 11:31:47;;;;;;;19.88;3.83;;;;;;;;;;5031420;28;20096;-75
2022/06/11 11:34:15;;;;;;;19.63;4.88;;;;;;;;;;5047225;28;20029;-74
2022/06/11 11:36:42;;;;;;;19.38;4.22;;;;;;;;;;5046721;28;20032;-73
2022/06/11 11:39:15;;;;;;;22.58;3.67;;;;;;;;;;5029205;28;20577;-73
2022/06/11 11:41:50;;;;;;;20.65;4.25;;;;;;;;;;5026654;28;20022;-75
2022/06/11 11:44:17;;;;;;;23.00;4.97;;;;;;;;;;5026750;28;20026;-75
2022/06/11 11:46:48;;;;;;;21.00;4.72;;;;;;;;;;5029738;28;20021;-74
2022/06/11 11:49:23;;;;;;;19.85;4.05;;;;;;;;;;5027563;28;20041;-75
2022/06/11 11:51:49;;;;;;;20.98;4.30;;;;;;;;;;5030867;28;20048;-74
2022/06/11 11:54:17;;;;;;;21.63;4.47;;;;;;;;;;5031191;28;20067;-73
2022/06/11 11:56:48;;;;;;;18.63;3.67;;;;;;;;;;5032060;28;20101;-74
2022/06/11 11:59:23;;;;;;;19.38;4.15;;;;;;;;;;5033393;28;20049;-73
2022/06/11 12:01:52;;;;;;;19.05;3.75;;;;;;;;;;5030969;28;20029;-72
2022/06/11 12:04:25;;;;;;;23.27;4.47;;;;;;;;;;5012047;28;20034;-73
2022/06/11 12:07:11;;;;;;;18.70;4.13;;;;;;;;;;5018569;28;20211;-74
2022/06/11 12:09:56;;;;;;;20.88;4.15;;;;;;;;;;5028050;28;20025;-75
2022/06/11 12:12:27;;;;;;;18.98;3.92;;;;;;;;;;5029253;28;20405;-73
2022/06/11 12:15:01;;;;;;;19.25;3.90;;;;;;;;;;5027565;28;20036;-74
2022/06/11 12:17:36;;;;;;;16.95;3.63;;;;;;;;;;5028171;28;20056;-73
2022/06/11 12:20:05;;;;;;;20.73;4.80;;;;;;;;;;5029635;28;20037;-73
2022/06/11 12:22:40;;;;;;;19.30;4.05;;;;;;;;;;5030548;28;20037;-73
2022/06/11 12:25:18;;;;;;;17.73;4.13;;;;;;;;;;5026269;28;20036;-74
2022/06/11 12:27:45;;;;;;;16.58;3.67;;;;;;;;;;5030798;28;20047;-75
2022/06/11 12:30:17;;;;;;;19.10;4.15;;;;;;;;;;5028542;28;20888;-74
2022/06/11 12:32:43;;;;;;;18.05;3.72;;;;;;;;;;5030950;28;20117;-75
2022/06/11 12:35:17;;;;;;;15.20;3.40;;;;;;;;;;5031078;28;20128;-74
2022/06/11 12:37:49;;;;;;;23.27;3.88;;;;;;;;;;5028715;28;20061;-74
2022/06/11 12:40:22;;;;;;;28.10;4.60;;;;;;;;;;5029092;28;20087;-74
2022/06/11 12:43:12;;;;;;;21.08;4.00;;;;;;;;;;5030464;28;20029;-75
2022/06/11 12:45:38;;;;;;;;;;;;;;;;;;5019223;28;20034;-74
2022/06/11 12:48:16;;;;;;;18.73;3.80;;;;;;;;;;5012102;28;19905;-75
2022/06/11 12:50:55;;;;;;;18.15;3.90;;;;;;;;;;5027889;28;20021;-75
2022/06/11 12:53:24;;;;;;;18.33;3.60;;;;;;;;;;5029876;28;20039;-75
2022/06/11 12:55:53;;;;;;;16.73;3.95;;;;;;;;;;5026288;28;20033;-74
2022/06/11 12:58:26;;;;;;;16.48;3.67;;;;;;;;;;5029158;28;20029;-74
2022/06/11 13:00:57;;;;;;;18.15;3.60;;;;;;;;;;5024531;28;20048;-73
2022/06/11 13:03:23;;;;;;;;;;;;;;;;;;5016397;28;20038;-73
2022/06/11 13:06:07;;;;;;;14.60;3.03;;;;;;;;;;5031824;28;19959;-74
2022/06/11 13:08:33;;;;;;;16.00;3.58;;;;;;;;;;5031290;28;20025;-75
2022/06/11 13:11:16;;;;;;;16.38;3.30;;;;;;;;;;5031420;28;20080;-77
2022/06/11 13:13:52;;;;;;;16.40;3.08;;;;;;;;;;5031676;28;20025;-74
2022/06/11 13:16:33;;;;;;;17.98;3.58;;;;;;;;;;5027442;28;20060;-74
2022/06/11 13:18:59;;;;;;;;;;;;;;;;;;5029735;28;20021;-74
2022/06/11 13:21:45;;;;;;;15.50;3.55;;;;;;;;;;5026284;28;20374;-75
2022/06/11 13:24:22;;;;;;;11.63;3.83;;;;;;;;;;5032176;28;20026;-76
2022/06/11 13:26:51;;;;;;;15.65;3.00;;;;;;;;;;5032098;28;20088;-75
2022/06/11 13:29:17;;;;;;;14.45;3.22;;;;;;;;;;5031799;28;20048;-75
2022/06/11 13:32:10;;;;;;;13.02;3.10;;;;;;;;;;5030235;28;20037;-75
2022/06/11 13:34:36;;;;;;;15.18;3.35;;;;;;;;;;5029481;28;20344;-75
2022/06/11 13:37:21;;;;;;;17.15;3.50;;;;;;;;;;5031398;28;20091;-74
2022/06/11 13:40:03;;;;;;;17.05;3.20;;;;;;;;;;5031264;28;20079;-75
2022/06/11 13:42:32;;;;;;;20.25;3.72;;;;;;;;;;5030650;28;20407;-74
2022/06/11 13:45:16;;;;;;;21.40;3.97;;;;;;;;;;5031047;28;20022;-74
2022/06/11 13:47:45;;;;;;;20.92;4.30;;;;;;;;;;5031111;28;20479;-75
2022/06/11 13:50:11;;;;;;;17.23;3.92;;;;;;;;;;5030617;28;20107;-75
2022/06/11 13:55:31;;;;;;;18.20;3.50;;;;;;;;;;5030234;28;20040;-74
2022/06/11 13:58:15;;;;;;;16.87;3.67;;;;;;;;;;5030005;28;20064;-74
2022/06/11 14:01:05;;;;;;;14.05;3.30;;;;;;;;;;5029044;28;20033;-73
2022/06/11 14:03:49;;;;;;;13.70;3.17;;;;;;;;;;5000303;28;20127;-73
2022/06/11 14:06:16;;;;;;;18.42;3.63;;;;;;;;;;5028686;28;20040;-73
2022/06/11 14:08:50;;;;;;;21.80;3.72;;;;;;;;;;5030672;28;20036;-74
2022/06/11 14:11:18;;;;;;;17.75;3.47;;;;;;;;;;5029426;28;20035;-74
2022/06/11 14:13:51;;;;;;;13.27;3.03;;;;;;;;;;5030244;28;20048;-73
2022/06/11 14:16:32;;;;;;;17.27;3.58;;;;;;;;;;5026906;28;20036;-73
2022/06/11 14:18:58;;;;;;;12.60;3.40;;;;;;;;;;5030437;28;20061;-73
2022/06/11 14:21:40;;;;;;;19.88;4.05;;;;;;;;;;5028483;28;20137;-74
2022/06/11 14:24:07;;;;;;;13.18;3.45;;;;;;;;;;5030684;28;20030;-74
2022/06/11 14:26:45;;;;;;;14.93;3.45;;;;;;;;;;5031287;28;20440;-75
2022/06/11 14:29:20;;;;;;;13.05;2.80;;;;;;;;;;5031264;28;20443;-73
2022/06/11 14:32:05;;;;;;;15.23;3.08;;;;;;;;;;5030648;28;20475;-74
2022/06/11 14:34:34;;;;;;;13.55;3.42;;;;;;;;;;5031208;28;20040;-73
2022/06/11 14:37:19;;;;;;;13.25;2.92;;;;;;;;;;5031042;28;20056;-74
2022/06/11 14:39:45;;;;;;;14.40;2.95;;;;;;;;;;5030695;28;20113;-73
2022/06/11 14:42:18;;;;;;;15.68;3.25;;;;;;;;;;5030586;28;20025;-73
2022/06/11 14:44:44;;;;;;;13.82;2.67;;;;;;;;;;5030261;28;20028;-74
2022/06/11 14:47:45;;;;;;;18.70;4.32;;;;;;;;;;5029517;28;20080;-73
2022/06/11 14:50:32;;;;;;;20.17;4.50;;;;;;;;;;4968123;28;20042;-72
2022/06/11 14:53:05;;;;;;;13.30;2.90;;;;;;;;;;5020171;28;20576;-73
2022/06/11 14:55:33;;;;;;;20.85;4.28;;;;;;;;;;5029021;28;20025;-74